Flight Track Log - Related Links

Times and Time Zones

All times are in EDT time to prevent confusion due to time zone crossing. See the SWA975 flight status page for this flight to view local times or setup timezone preferences in your user account.

Time Position Orientation Groundspeed Altitude Reporting Facility
EDT Latitude Longitude Course Direction KTS MPH feet Rate Location/Type
Sat 09:20:43 AM 37.7333 -122.2833 310° West 193 222 2,100  Level Northern Cal TRACON
Sat 09:21:37 AM 37.7667 -122.3333 310° West 244 281 4,200 3,000 Climbing Northern Cal TRACON
Sat 09:22:43 AM 37.8500 -122.3833 335° Northwest 299 344 8,100 3,238 Climbing Northern Cal TRACON
Sat 09:23:43 AM 37.8833 -122.3000 63° Northeast 312 359 11,000 3,020 Climbing Northern Cal TRACON
Sat 09:25:12 AM 37.9111 -122.1283 78° East 349 402 15,600 3,160 Climbing Oakland Center
Sat 09:26:13 AM 37.9322 -121.9992 78° East 371 427 18,900 3,174 Climbing Oakland Center
Sat 09:27:13 AM 37.9592 -121.8644 76° East 392 451 22,000 2,876 Climbing Oakland Center
Sat 09:28:14 AM 37.9844 -121.7244 77° East 407 468 24,700 2,430 Climbing Oakland Center
Sat 09:29:14 AM 38.0122 -121.5781 76° East 425 489 26,900 2,331 Climbing Oakland Center
Sat 09:30:15 AM 38.0433 -121.4069 77° East 447 514 29,400 2,132 Climbing Oakland Center
Sat 09:31:15 AM 38.0719 -121.2467 77° East 465 535 31,200 1,736 Climbing Oakland Center
Sat 09:32:16 AM 38.1017 -121.0842 77° East 476 548 32,900 1,884 Climbing Oakland Center
Sat 09:33:16 AM 38.1311 -120.9194 77° East 482 555 35,000 1,785 Climbing Oakland Center
Sat 09:34:17 AM 38.1606 -120.7550 77° East 481 554 36,500 1,426 Climbing Oakland Center
Sat 09:35:18 AM 38.1897 -120.5883 77° East 486 559 37,900 1,537 Climbing Oakland Center
Sat 09:36:18 AM 38.2197 -120.4208 77° East 488 562 39,600 1,438 Climbing Oakland Center
Sat 09:37:19 AM 38.2475 -120.2583 78° East 476 548 40,800 1,180 Climbing Oakland Center
Sat 09:37:19 AM 38.2475 -120.2583 78° East 476 548 40,800 200 Level Oakland Center
Sat 09:38:19 AM 38.2739 -120.0928 78° East 477 549 41,000 200 Climbing Oakland Center
Sat 09:38:19 AM 38.2739 -120.0928 78° East 477 549 41,000  Level Oakland Center
Sat 09:39:20 AM 38.3017 -119.9306 78° East 472 543 41,000  Level Oakland Center
Sat 09:39:20 AM 38.3017 -119.9306 78° East 472 543 41,000  Level Oakland Center
Sat 09:40:21 AM 38.3292 -119.7681 78° East 471 542 41,000  Level Oakland Center
Sat 09:40:21 AM 38.3292 -119.7681 78° East 471 542 41,000  Level Oakland Center
Sat 09:41:21 AM 38.3564 -119.6056 78° East 470 541 41,000  Level Oakland Center
Sat 09:41:21 AM 38.3564 -119.6056 78° East 470 541 41,000  Level Oakland Center
Sat 09:42:22 AM 38.3844 -119.4322 78° East 470 541 41,000  Level Oakland Center
Sat 09:42:22 AM 38.3844 -119.4322 78° East 470 541 41,000  Level Oakland Center
Sat 09:43:22 AM 38.4114 -119.2708 78° East 467 537 41,000  Level Oakland Center
Sat 09:43:22 AM 38.4114 -119.2708 78° East 467 537 41,000  Level Oakland Center
Sat 09:44:23 AM 38.4378 -119.1061 78° East 475 547 41,000  Level Oakland Center
Sat 09:44:23 AM 38.4378 -119.1061 78° East 475 547 41,000  Level Oakland Center
Sat 09:45:24 AM 38.4647 -118.9411 78° East 476 548 41,000  Level Oakland Center
Sat 09:45:24 AM 38.4647 -118.9411 78° East 476 548 41,000  Level Oakland Center
Sat 09:46:25 AM 38.4900 -118.7775 79° East 473 544 41,000  Level Oakland Center
Sat 09:46:25 AM 38.4900 -118.7775 79° East 473 544 41,000  Level Oakland Center
Sat 09:47:25 AM 38.5211 -118.5800 79° East 475 547 41,000  Level Oakland Center
Sat 09:47:25 AM 38.5211 -118.5800 79° East 475 547 41,000  Level Oakland Center
Sat 09:48:26 AM 38.5469 -118.4158 79° East 474 545 41,000  Level Oakland Center
Sat 09:48:26 AM 38.5469 -118.4158 79° East 474 545 41,000  Level Oakland Center
Sat 09:49:27 AM 38.5733 -118.2500 78° East 478 550 41,000  Level Oakland Center
Sat 09:49:27 AM 38.5733 -118.2500 78° East 478 550 41,000  Level Oakland Center
Sat 09:50:27 AM 38.5986 -118.0817 79° East 476 548 41,000  Level Oakland Center
Sat 09:50:27 AM 38.5986 -118.0817 79° East 476 548 41,000  Level Oakland Center
Sat 09:51:28 AM 38.6208 -117.9306 79° East 475 547 41,000  Level Oakland Center
Sat 09:51:28 AM 38.6208 -117.9306 79° East 475 547 41,000  Level Oakland Center
Sat 09:52:29 AM 38.6478 -117.7544 79° East 475 547 41,000  Level Oakland Center
Sat 09:52:29 AM 38.6478 -117.7544 79° East 475 547 41,000  Level Oakland Center
Sat 09:53:30 AM 38.6703 -117.5983 79° East 471 542 41,000  Level Oakland Center
Sat 09:53:30 AM 38.6703 -117.5983 79° East 471 542 41,000  Level Oakland Center
Sat 09:54:30 AM 38.6944 -117.4331 79° East 470 541 41,000  Level Oakland Center
Sat 09:54:30 AM 38.6944 -117.4331 79° East 470 541 41,000  Level Oakland Center
Sat 09:55:07 AM 38.7083 -117.3319 80° East 474 545 41,000  Level Salt Lake Center
Sat 09:55:07 AM 38.7083 -117.3319 80° East 474 545 41,000  Level Salt Lake Center
Sat 09:56:08 AM 38.7328 -117.1664 79° East 472 543 41,000  Level Salt Lake Center
Sat 09:56:08 AM 38.7328 -117.1664 79° East 472 543 41,000  Level Salt Lake Center
Sat 09:57:10 AM 38.7558 -117.0000 80° East 471 542 41,000  Level Salt Lake Center
Sat 09:57:10 AM 38.7558 -117.0000 80° East 471 542 41,000  Level Salt Lake Center
Sat 09:58:11 AM 38.7792 -116.8333 80° East 473 544 41,000  Level Salt Lake Center
Sat 09:58:11 AM 38.7792 -116.8333 80° East 473 544 41,000  Level Salt Lake Center
Sat 09:59:12 AM 38.8067 -116.6331 80° East 473 544 41,000  Level Salt Lake Center
Sat 09:59:12 AM 38.8067 -116.6331 80° East 473 544 41,000  Level Salt Lake Center
Sat 10:00:13 AM 38.8294 -116.4672 80° East 473 544 41,000  Level Salt Lake Center
Sat 10:00:13 AM 38.8294 -116.4672 80° East 473 544 41,000  Level Salt Lake Center
Sat 10:01:15 AM 38.8519 -116.3000 80° East 473 544 41,000  Level Salt Lake Center
Sat 10:01:15 AM 38.8519 -116.3000 80° East 473 544 41,000  Level Salt Lake Center
Sat 10:02:16 AM 38.8756 -116.1339 80° East 474 545 41,000  Level Salt Lake Center
Sat 10:02:16 AM 38.8756 -116.1339 80° East 474 545 41,000  Level Salt Lake Center
Sat 10:03:18 AM 38.8972 -115.9661 81° East 475 547 41,000  Level Salt Lake Center
Sat 10:03:18 AM 38.8972 -115.9661 81° East 475 547 41,000  Level Salt Lake Center
Sat 10:04:19 AM 38.9186 -115.7983 81° East 476 548 41,000  Level Salt Lake Center
Sat 10:04:19 AM 38.9186 -115.7983 81° East 476 548 41,000  Level Salt Lake Center
Sat 10:05:20 AM 38.9414 -115.6314 80° East 476 548 41,000  Level Salt Lake Center
Sat 10:05:20 AM 38.9414 -115.6314 80° East 476 548 41,000  Level Salt Lake Center
Sat 10:06:22 AM 38.9628 -115.4633 81° East 477 549 41,000  Level Salt Lake Center
Sat 10:06:22 AM 38.9628 -115.4633 81° East 477 549 41,000  Level Salt Lake Center
Sat 10:07:23 AM 38.9850 -115.2961 80° East 481 554 41,000  Level Salt Lake Center
Sat 10:07:23 AM 38.9850 -115.2961 80° East 481 554 41,000  Level Salt Lake Center
Sat 10:08:25 AM 39.0061 -115.1289 81° East 477 549 41,000  Level Salt Lake Center
Sat 10:08:25 AM 39.0061 -115.1289 81° East 477 549 41,000  Level Salt Lake Center
Sat 10:09:26 AM 39.0314 -114.9281 81° East 473 544 41,000  Level Salt Lake Center
Sat 10:09:26 AM 39.0314 -114.9281 81° East 473 544 41,000  Level Salt Lake Center
Sat 10:10:28 AM 39.0517 -114.7617 81° East 473 544 41,000  Level Salt Lake Center
Sat 10:10:28 AM 39.0517 -114.7617 81° East 473 544 41,000  Level Salt Lake Center
Sat 10:11:29 AM 39.0719 -114.5942 81° East 473 544 41,000  Level Salt Lake Center
Sat 10:11:29 AM 39.0719 -114.5942 81° East 473 544 41,000  Level Salt Lake Center
Sat 10:12:30 AM 39.0922 -114.4269 81° East 473 544 41,000  Level Salt Lake Center
Sat 10:12:30 AM 39.0922 -114.4269 81° East 473 544 41,000  Level Salt Lake Center
Sat 10:13:32 AM 39.1119 -114.2603 81° East 471 542 41,000  Level Salt Lake Center
Sat 10:13:32 AM 39.1119 -114.2603 81° East 471 542 41,000  Level Salt Lake Center
Sat 10:14:33 AM 39.1317 -114.0900 81° East 478 550 41,000  Level Salt Lake Center
Sat 10:14:33 AM 39.1317 -114.0900 81° East 478 550 41,000  Level Salt Lake Center
Sat 10:15:35 AM 39.1506 -113.9211 82° East 478 550 41,000  Level Salt Lake Center
Sat 10:15:35 AM 39.1506 -113.9211 82° East 478 550 41,000  Level Salt Lake Center
Sat 10:16:36 AM 39.1694 -113.7531 82° East 476 548 41,000  Level Salt Lake Center
Sat 10:16:36 AM 39.1694 -113.7531 82° East 476 548 41,000  Level Salt Lake Center
Sat 10:17:38 AM 39.1883 -113.5856 82° East 474 545 41,000  Level Salt Lake Center
Sat 10:17:38 AM 39.1883 -113.5856 82° East 474 545 41,000  Level Salt Lake Center
Sat 10:18:39 AM 39.2100 -113.3856 82° East 471 542 41,000  Level Salt Lake Center
Sat 10:18:39 AM 39.2100 -113.3856 82° East 471 542 41,000  Level Salt Lake Center
Sat 10:19:41 AM 39.2281 -113.2189 82° East 470 541 41,000  Level Salt Lake Center
Sat 10:19:41 AM 39.2281 -113.2189 82° East 470 541 41,000  Level Salt Lake Center
Sat 10:20:42 AM 39.2467 -113.0514 82° East 470 541 41,000  Level Salt Lake Center
Sat 10:20:42 AM 39.2467 -113.0514 82° East 470 541 41,000  Level Salt Lake Center
Sat 10:21:44 AM 39.2631 -112.8839 83° East 470 541 41,000  Level Salt Lake Center
Sat 10:21:44 AM 39.2631 -112.8839 83° East 470 541 41,000  Level Salt Lake Center
Sat 10:22:46 AM 39.2811 -112.7169 82° East 470 541 41,000  Level Salt Lake Center
Sat 10:22:46 AM 39.2811 -112.7169 82° East 470 541 41,000  Level Salt Lake Center
Sat 10:23:47 AM 39.3003 -112.5381 82° East 465 535 41,000  Level Salt Lake Center
Sat 10:23:47 AM 39.3003 -112.5381 82° East 465 535 41,000  Level Salt Lake Center
Sat 10:24:49 AM 39.3289 -112.3725 77° East 471 542 41,000  Level Salt Lake Center
Sat 10:24:49 AM 39.3289 -112.3725 77° East 471 542 41,000  Level Salt Lake Center
Sat 10:25:50 AM 39.3600 -112.2036 77° East 482 555 41,000  Level Salt Lake Center
Sat 10:25:50 AM 39.3600 -112.2036 77° East 482 555 41,000  Level Salt Lake Center
Sat 10:26:52 AM 39.3894 -112.0353 77° East 484 557 41,000  Level Salt Lake Center
Sat 10:26:52 AM 39.3894 -112.0353 77° East 484 557 41,000  Level Salt Lake Center
Sat 10:27:53 AM 39.4200 -111.8681 77° East 482 555 41,000  Level Salt Lake Center
Sat 10:27:53 AM 39.4200 -111.8681 77° East 482 555 41,000  Level Salt Lake Center
Sat 10:28:55 AM 39.4508 -111.6992 77° East 484 557 41,000  Level Salt Lake Center
Sat 10:28:55 AM 39.4508 -111.6992 77° East 484 557 41,000  Level Salt Lake Center
Sat 10:29:57 AM 39.4889 -111.4967 76° East 485 558 41,000  Level Salt Lake Center
Sat 10:29:57 AM 39.4889 -111.4967 76° East 485 558 41,000  Level Salt Lake Center
Sat 10:30:58 AM 39.5175 -111.3264 78° East 487 560 41,000  Level Salt Lake Center
Sat 10:30:58 AM 39.5175 -111.3264 78° East 487 560 41,000  Level Salt Lake Center
Sat 10:32:00 AM 39.5478 -111.1667 76° East 486 559 41,000  Level Salt Lake Center
Sat 10:32:00 AM 39.5478 -111.1667 76° East 486 559 41,000  Level Salt Lake Center
Sat 10:33:02 AM 39.5803 -110.9767 77° East 484 557 41,000  Level Salt Lake Center
Sat 10:33:02 AM 39.5803 -110.9767 77° East 484 557 41,000  Level Salt Lake Center
Sat 10:34:04 AM 39.6097 -110.8119 77° East 490 564 41,000  Level Salt Lake Center
Sat 10:34:04 AM 39.6097 -110.8119 77° East 490 564 41,000  Level Salt Lake Center
Sat 10:35:05 AM 39.6422 -110.6211 77° East 486 559 41,000  Level Salt Lake Center
Sat 10:35:05 AM 39.6422 -110.6211 77° East 486 559 41,000  Level Salt Lake Center
Sat 10:36:07 AM 39.6697 -110.4564 78° East 487 560 41,000  Level Salt Lake Center
Sat 10:36:07 AM 39.6697 -110.4564 78° East 487 560 41,000  Level Salt Lake Center
Sat 10:37:09 AM 39.7025 -110.2661 77° East 484 557 41,000  Level Salt Lake Center
Sat 10:37:09 AM 39.7025 -110.2661 77° East 484 557 41,000  Level Salt Lake Center
Sat 10:38:11 AM 39.7286 -110.1011 78° East 486 559 41,000  Level Salt Lake Center
Sat 10:38:11 AM 39.7286 -110.1011 78° East 486 559 41,000  Level Salt Lake Center
Sat 10:39:13 AM 39.7553 -109.9372 78° East 484 557 41,000  Level Salt Lake Center
Sat 10:39:13 AM 39.7553 -109.9372 78° East 484 557 41,000  Level Salt Lake Center
Sat 10:40:14 AM 39.7872 -109.7450 78° East 487 560 41,000  Level Salt Lake Center
Sat 10:40:14 AM 39.7872 -109.7450 78° East 487 560 41,000  Level Salt Lake Center
Sat 10:41:16 AM 39.8144 -109.5803 78° East 487 560 41,000  Level Salt Lake Center
Sat 10:41:16 AM 39.8144 -109.5803 78° East 487 560 41,000  Level Salt Lake Center
Sat 10:42:18 AM 39.8453 -109.3858 78° East 488 562 41,000  Level Salt Lake Center
Sat 10:42:18 AM 39.8453 -109.3858 78° East 488 562 41,000  Level Salt Lake Center
Sat 10:43:20 AM 39.8719 -109.2186 78° East 490 564 41,000  Level Salt Lake Center
Sat 10:43:20 AM 39.8719 -109.2186 78° East 490 564 41,000  Level Salt Lake Center
Sat 10:44:22 AM 39.9028 -109.0225 78° East 492 566 41,000  Level Salt Lake Center
Sat 10:44:22 AM 39.9028 -109.0225 78° East 492 566 41,000  Level Salt Lake Center
Sat 10:45:24 AM 39.9292 -108.8536 78° East 492 566 41,000  Level Salt Lake Center
Sat 10:45:24 AM 39.9292 -108.8536 78° East 492 566 41,000  Level Salt Lake Center
Sat 10:46:25 AM 39.9547 -108.6847 79° East 491 565 41,000  Level Salt Lake Center
Sat 10:46:25 AM 39.9547 -108.6847 79° East 491 565 41,000  Level Salt Lake Center
Sat 10:47:27 AM 39.9839 -108.4903 79° East 486 559 41,000  Level Salt Lake Center
Sat 10:47:27 AM 39.9839 -108.4903 79° East 486 559 41,000  Level Salt Lake Center
Sat 10:48:31 AM 40.0092 -108.3219 79° East 487 560 41,000  Level Denver Center
Sat 10:48:31 AM 40.0092 -108.3219 79° East 487 560 41,000  Level Denver Center
Sat 10:49:33 AM 40.0372 -108.1278 79° East 487 560 41,000  Level Denver Center
Sat 10:49:33 AM 40.0372 -108.1278 79° East 487 560 41,000 -568 Level Denver Center
Sat 10:50:47 AM 40.0622 -107.9608 79° East 489 563 40,300 -568 Descending Denver Center
Sat 10:50:47 AM 40.0622 -107.9608 79° East 489 563 40,300 -2,419 Level Denver Center
Sat 10:51:49 AM 40.1050 -107.7375 76° East 495 570 37,800 -2,419 Descending Denver Center
Sat 10:51:49 AM 40.1050 -107.7375 76° East 495 570 37,800 -774 Level Denver Center
Sat 10:52:51 AM 40.1403 -107.5728 74° East 493 567 37,000 -774 Descending Denver Center
Sat 10:52:51 AM 40.1403 -107.5728 74° East 493 567 37,000  Level Denver Center
Sat 10:53:53 AM 40.2497 -107.4372 43° Northeast 481 554 37,000  Level Denver Center
Sat 10:53:53 AM 40.2497 -107.4372 43° Northeast 481 554 37,000  Level Denver Center
Sat 10:54:55 AM 40.3417 -107.3231 43° Northeast 476 548 37,000  Level Denver Center
Sat 10:54:55 AM 40.3417 -107.3231 43° Northeast 476 548 37,000  Level Denver Center
Sat 10:55:57 AM 40.4192 -107.2294 43° Northeast 475 547 37,000  Level Denver Center
Sat 10:55:57 AM 40.4192 -107.2294 43° Northeast 475 547 37,000 -762 Level Denver Center
Sat 10:57:00 AM 40.4833 -107.0247 68° East 485 558 36,200 -762 Descending Denver Center
Sat 10:57:00 AM 40.4833 -107.0247 68° East 485 558 36,200 -1,377 Level Denver Center
Sat 10:58:01 AM 40.4758 -106.8972 94° East 477 549 34,800 -1,377 Descending Denver Center
Sat 10:58:01 AM 40.4758 -106.8972 94° East 477 549 34,800 -3,524 Level Denver Center
Sat 10:59:04 AM 40.4694 -106.6650 92° East 483 556 31,100 -3,524 Descending Denver Center
Sat 10:59:04 AM 40.4694 -106.6650 92° East 483 556 31,100 -97 Level Denver Center
Sat 11:00:06 AM 40.4636 -106.4761 92° East 482 555 31,000 -97 Descending Denver Center
Sat 11:00:06 AM 40.4636 -106.4761 92° East 482 555 31,000 -968 Level Denver Center
Sat 11:01:08 AM 40.4575 -106.3147 93° East 466 536 30,000 -968 Descending Denver Center
Sat 11:01:08 AM 40.4575 -106.3147 93° East 466 536 30,000 -968 Level Denver Center
Sat 11:02:10 AM 40.4506 -106.1561 93° East 450 518 29,000 -968 Descending Denver Center
Sat 11:02:10 AM 40.4506 -106.1561 93° East 450 518 29,000 -968 Level Denver Center
Sat 11:03:12 AM 40.4450 -105.9933 93° East 448 516 28,000 -968 Descending Denver Center
Sat 11:03:12 AM 40.4450 -105.9933 93° East 448 516 28,000 -1,645 Level Denver Center
Sat 11:04:14 AM 40.4161 -105.8058 101° East 438 504 26,300 -1,645 Descending Denver Center
Sat 11:04:14 AM 40.4161 -105.8058 101° East 438 504 26,300 -2,032 Level Denver Center
Sat 11:05:16 AM 40.3922 -105.6536 102° East 430 495 24,200 -2,032 Descending Denver Center
Sat 11:05:16 AM 40.3922 -105.6536 102° East 430 495 24,200 -2,032 Level Denver Center
Sat 11:06:18 AM 40.3675 -105.5089 103° East 413 475 22,100 -2,032 Descending Denver Center
Sat 11:06:18 AM 40.3675 -105.5089 103° East 413 475 22,100 -1,238 Level Denver Center
Sat 11:07:21 AM 40.3228 -105.3819 115° Southeast 363 418 20,800 -1,238 Descending Denver Center
Sat 11:07:21 AM 40.3228 -105.3819 115° Southeast 363 418 20,800 -1,869 Level Denver Center
Sat 11:08:22 AM 40.2547 -105.2750 130° Southeast 351 404 18,900 -1,869 Descending Denver Center
Sat 11:08:22 AM 40.2547 -105.2750 130° Southeast 351 404 18,900 -1,645 Level Denver Center
Sat 11:09:24 AM 40.1922 -105.1792 130° Southeast 345 397 17,200 -1,645 Descending Denver Center
Sat 11:09:24 AM 40.1922 -105.1792 130° Southeast 345 397 17,200 -194 Level Denver Center
Sat 11:10:26 AM 40.1275 -105.0767 130° Southeast 338 389 17,000 -194 Descending Denver Center
Sat 11:10:26 AM 40.1275 -105.0767 130° Southeast 338 389 17,000 -387 Level Denver Center
Sat 11:11:28 AM 40.0822 -105.0067 130° Southeast 331 381 16,600 -387 Descending Denver Center
Sat 11:11:28 AM 40.0822 -105.0067 130° Southeast 331 381 16,600 -1,548 Level Denver Center
Sat 11:12:30 AM 40.0117 -104.8978 130° Southeast 321 369 15,000 -1,548 Descending Denver Center
Sat 11:12:30 AM 40.0117 -104.8978 130° Southeast 321 369 15,000 -1,355 Level Denver Center
Sat 11:13:32 AM 39.9717 -104.7975 117° Southeast 300 345 13,600 -1,355 Descending Denver Center
Sat 11:13:32 AM 39.9717 -104.7975 117° Southeast 300 345 13,600 -1,065 Level Denver Center
Sat 11:14:34 AM 39.9697 -104.6944 91° East 283 326 12,500 -1,065 Descending Denver Center
Sat 11:14:34 AM 39.9697 -104.6944 91° East 283 326 12,500 -1,161 Level Denver Center
Sat 11:15:36 AM 39.9669 -104.5903 92° East 267 307 11,300 -1,161 Descending Denver Center
Sat 11:15:36 AM 39.9669 -104.5903 92° East 267 307 11,300 -290 Level Denver Center
Sat 11:16:38 AM 39.9642 -104.4961 92° East 262 302 11,000 -290 Descending Denver Center
Sat 11:16:38 AM 39.9642 -104.4961 92° East 262 302 11,000 -571 Level Denver Center
Sat 11:17:41 AM 39.9608 -104.4178 93° East 219 252 10,400 -571 Descending Denver Center
Sat 11:17:41 AM 39.9608 -104.4178 93° East 219 252 10,400 -1,065 Level Denver Center
Sat 11:18:43 AM 39.9342 -104.3553 119° Southeast 220 253 9,300 -1,065 Descending Denver Center
Sat 11:18:43 AM 39.9342 -104.3553 119° Southeast 220 253 9,300 -387 Level Denver Center
Sat 11:19:45 AM 39.8783 -104.3611 185° South 212 244 8,900 -387 Descending Denver Center
Sat 11:19:45 AM 39.8783 -104.3611 185° South 212 244 8,900  Level Denver Center
Sat 11:21:00 AM 39.7658 -104.4816 219° Southwest  Level FlightAware Approximate
Sat 11:28:00 AM 39.8500 -104.6667 North  Level FlightAware Approximate
Sat 11:29:00 AM 39.8617 -104.6732 North  Level Estimated
Sat 11:30:00 AM 39.8617 -104.6732 North  Level Estimated

Login

Don't have an account? Register now (free) for customized features, flight alerts, and more!